sensor_id;sensor_type;location;lat;lon;timestamp;P1;durP1;ratioP1;P2;durP2;ratioP2
74674;SDS011;63200;48.810;12.352;2023-11-19T00:01:00;2.05;;;1.95;;
74674;SDS011;63200;48.810;12.352;2023-11-19T00:03:25;2.53;;;2.42;;
74674;SDS011;63200;48.810;12.352;2023-11-19T00:05:51;2.65;;;2.40;;
74674;SDS011;63200;48.810;12.352;2023-11-19T00:08:16;3.83;;;3.00;;
74674;SDS011;63200;48.810;12.352;2023-11-19T00:10:42;4.72;;;2.72;;
74674;SDS011;63200;48.810;12.352;2023-11-19T00:13:07;2.95;;;2.85;;
74674;SDS011;63200;48.810;12.352;2023-11-19T00:15:33;4.10;;;3.63;;
74674;SDS011;63200;48.810;12.352;2023-11-19T00:17:58;3.08;;;2.88;;
74674;SDS011;63200;48.810;12.352;2023-11-19T00:20:23;3.47;;;2.88;;
74674;SDS011;63200;48.810;12.352;2023-11-19T00:22:49;4.18;;;3.53;;
74674;SDS011;63200;48.810;12.352;2023-11-19T00:25:17;2.95;;;2.75;;
74674;SDS011;63200;48.810;12.352;2023-11-19T00:27:43;3.35;;;3.13;;
74674;SDS011;63200;48.810;12.352;2023-11-19T00:30:11;4.10;;;3.80;;
74674;SDS011;63200;48.810;12.352;2023-11-19T00:32:38;4.38;;;2.95;;
74674;SDS011;63200;48.810;12.352;2023-11-19T00:35:07;2.83;;;2.63;;
74674;SDS011;63200;48.810;12.352;2023-11-19T00:37:35;2.90;;;2.70;;
74674;SDS011;63200;48.810;12.352;2023-11-19T00:40:00;4.35;;;3.95;;
74674;SDS011;63200;48.810;12.352;2023-11-19T00:42:25;3.22;;;3.03;;
74674;SDS011;63200;48.810;12.352;2023-11-19T00:44:51;3.65;;;3.38;;
74674;SDS011;63200;48.810;12.352;2023-11-19T00:47:17;3.67;;;3.40;;
74674;SDS011;63200;48.810;12.352;2023-11-19T00:49:45;3.25;;;3.03;;
74674;SDS011;63200;48.810;12.352;2023-11-19T00:52:12;3.00;;;2.80;;
74674;SDS011;63200;48.810;12.352;2023-11-19T00:54:37;3.40;;;3.20;;
74674;SDS011;63200;48.810;12.352;2023-11-19T00:57:02;2.40;;;2.30;;
74674;SDS011;63200;48.810;12.352;2023-11-19T00:59:28;4.85;;;3.40;;
74674;SDS011;63200;48.810;12.352;2023-11-19T01:01:53;4.13;;;3.83;;
74674;SDS011;63200;48.810;12.352;2023-11-19T01:04:19;6.28;;;2.80;;
74674;SDS011;63200;48.810;12.352;2023-11-19T01:06:44;3.78;;;3.47;;
74674;SDS011;63200;48.810;12.352;2023-11-19T01:09:09;3.83;;;3.53;;
74674;SDS011;63200;48.810;12.352;2023-11-19T01:11:35;5.03;;;4.43;;
74674;SDS011;63200;48.810;12.352;2023-11-19T01:14:00;6.00;;;5.35;;
74674;SDS011;63200;48.810;12.352;2023-11-19T01:16:26;8.35;;;5.75;;
74674;SDS011;63200;48.810;12.352;2023-11-19T01:18:52;5.35;;;4.85;;
74674;SDS011;63200;48.810;12.352;2023-11-19T01:21:18;6.72;;;6.03;;
74674;SDS011;63200;48.810;12.352;2023-11-19T01:23:43;9.00;;;6.38;;
74674;SDS011;63200;48.810;12.352;2023-11-19T01:26:09;7.00;;;5.95;;
74674;SDS011;63200;48.810;12.352;2023-11-19T01:28:35;6.90;;;5.68;;
74674;SDS011;63200;48.810;12.352;2023-11-19T01:31:01;6.35;;;5.20;;
74674;SDS011;63200;48.810;12.352;2023-11-19T01:33:26;7.20;;;5.68;;
74674;SDS011;63200;48.810;12.352;2023-11-19T01:35:52;5.50;;;4.95;;
74674;SDS011;63200;48.810;12.352;2023-11-19T01:38:18;5.60;;;4.55;;
74674;SDS011;63200;48.810;12.352;2023-11-19T01:40:43;4.93;;;4.13;;
74674;SDS011;63200;48.810;12.352;2023-11-19T01:43:08;4.68;;;4.13;;
74674;SDS011;63200;48.810;12.352;2023-11-19T01:45:36;24.10;;;15.10;;
74674;SDS011;63200;48.810;12.352;2023-11-19T01:48:03;7.70;;;6.25;;
74674;SDS011;63200;48.810;12.352;2023-11-19T01:50:29;7.72;;;6.43;;
74674;SDS011;63200;48.810;12.352;2023-11-19T01:52:55;5.20;;;4.60;;
74674;SDS011;63200;48.810;12.352;2023-11-19T01:55:22;3.08;;;2.88;;
74674;SDS011;63200;48.810;12.352;2023-11-19T01:57:49;2.50;;;2.40;;
74674;SDS011;63200;48.810;12.352;2023-11-19T02:00:14;2.90;;;2.80;;
74674;SDS011;63200;48.810;12.352;2023-11-19T02:02:41;2.60;;;2.40;;
74674;SDS011;63200;48.810;12.352;2023-11-19T02:05:08;2.55;;;2.40;;
74674;SDS011;63200;48.810;12.352;2023-11-19T02:07:34;2.60;;;2.50;;
74674;SDS011;63200;48.810;12.352;2023-11-19T02:09:59;2.88;;;2.63;;
74674;SDS011;63200;48.810;12.352;2023-11-19T02:12:27;2.70;;;2.60;;
74674;SDS011;63200;48.810;12.352;2023-11-19T02:14:59;3.08;;;2.88;;
74674;SDS011;63200;48.810;12.352;2023-11-19T02:17:34;2.80;;;2.70;;
74674;SDS011;63200;48.810;12.352;2023-11-19T02:19:59;2.83;;;2.63;;
74674;SDS011;63200;48.810;12.352;2023-11-19T02:22:25;3.97;;;3.60;;
74674;SDS011;63200;48.810;12.352;2023-11-19T02:24:55;4.05;;;3.65;;
74674;SDS011;63200;48.810;12.352;2023-11-19T02:27:31;3.13;;;2.92;;
74674;SDS011;63200;48.810;12.352;2023-11-19T02:30:16;2.50;;;2.30;;
74674;SDS011;63200;48.810;12.352;2023-11-19T02:32:42;3.70;;;3.08;;
74674;SDS011;63200;48.810;12.352;2023-11-19T02:35:07;2.70;;;2.60;;
74674;SDS011;63200;48.810;12.352;2023-11-19T02:37:34;4.00;;;2.70;;
74674;SDS011;63200;48.810;12.352;2023-11-19T02:39:59;2.90;;;2.80;;
74674;SDS011;63200;48.810;12.352;2023-11-19T02:42:27;2.45;;;2.35;;
74674;SDS011;63200;48.810;12.352;2023-11-19T02:44:53;4.10;;;3.60;;
74674;SDS011;63200;48.810;12.352;2023-11-19T02:47:18;3.17;;;2.97;;
74674;SDS011;63200;48.810;12.352;2023-11-19T02:49:46;3.20;;;3.00;;
74674;SDS011;63200;48.810;12.352;2023-11-19T02:52:12;4.80;;;3.83;;
74674;SDS011;63200;48.810;12.352;2023-11-19T02:54:39;4.15;;;2.95;;
74674;SDS011;63200;48.810;12.352;2023-11-19T02:57:06;5.70;;;4.57;;
74674;SDS011;63200;48.810;12.352;2023-11-19T02:59:33;3.05;;;2.85;;
74674;SDS011;63200;48.810;12.352;2023-11-19T03:02:04;3.65;;;3.35;;
74674;SDS011;63200;48.810;12.352;2023-11-19T03:04:32;4.05;;;3.42;;
74674;SDS011;63200;48.810;12.352;2023-11-19T03:06:58;2.58;;;2.45;;
74674;SDS011;63200;48.810;12.352;2023-11-19T03:09:23;3.15;;;2.95;;
74674;SDS011;63200;48.810;12.352;2023-11-19T03:11:49;3.85;;;3.55;;
74674;SDS011;63200;48.810;12.352;2023-11-19T03:14:14;5.78;;;4.63;;
74674;SDS011;63200;48.810;12.352;2023-11-19T03:16:40;5.68;;;4.25;;
74674;SDS011;63200;48.810;12.352;2023-11-19T03:19:05;2.60;;;2.50;;
74674;SDS011;63200;48.810;12.352;2023-11-19T03:21:30;2.17;;;2.08;;
74674;SDS011;63200;48.810;12.352;2023-11-19T03:23:56;1.58;;;1.58;;
74674;SDS011;63200;48.810;12.352;2023-11-19T03:26:25;3.28;;;2.42;;
74674;SDS011;63200;48.810;12.352;2023-11-19T03:28:51;2.50;;;2.30;;
74674;SDS011;63200;48.810;12.352;2023-11-19T03:31:17;7.38;;;4.38;;
74674;SDS011;63200;48.810;12.352;2023-11-19T03:33:42;2.10;;;2.03;;
74674;SDS011;63200;48.810;12.352;2023-11-19T03:36:07;1.70;;;1.70;;
74674;SDS011;63200;48.810;12.352;2023-11-19T03:38:34;2.38;;;2.17;;
74674;SDS011;63200;48.810;12.352;2023-11-19T03:40:59;3.08;;;2.85;;
74674;SDS011;63200;48.810;12.352;2023-11-19T03:43:25;3.20;;;3.00;;
74674;SDS011;63200;48.810;12.352;2023-11-19T03:45:50;3.60;;;3.30;;
74674;SDS011;63200;48.810;12.352;2023-11-19T03:48:15;2.45;;;2.35;;
74674;SDS011;63200;48.810;12.352;2023-11-19T03:50:44;2.40;;;2.30;;
74674;SDS011;63200;48.810;12.352;2023-11-19T03:53:09;2.50;;;2.28;;
74674;SDS011;63200;48.810;12.352;2023-11-19T03:55:34;2.80;;;2.70;;
74674;SDS011;63200;48.810;12.352;2023-11-19T03:57:59;2.40;;;2.30;;
74674;SDS011;63200;48.810;12.352;2023-11-19T04:00:25;2.25;;;2.25;;
74674;SDS011;63200;48.810;12.352;2023-11-19T04:02:50;2.10;;;2.00;;
74674;SDS011;63200;48.810;12.352;2023-11-19T04:05:15;1.85;;;1.85;;
74674;SDS011;63200;48.810;12.352;2023-11-19T04:07:41;2.15;;;1.70;;
74674;SDS011;63200;48.810;12.352;2023-11-19T04:10:06;1.80;;;1.70;;
74674;SDS011;63200;48.810;12.352;2023-11-19T04:12:32;1.60;;;1.60;;
74674;SDS011;63200;48.810;12.352;2023-11-19T04:14:57;1.50;;;1.50;;
74674;SDS011;63200;48.810;12.352;2023-11-19T04:17:22;3.03;;;1.77;;
74674;SDS011;63200;48.810;12.352;2023-11-19T04:19:48;1.70;;;1.70;;
74674;SDS011;63200;48.810;12.352;2023-11-19T04:22:13;1.42;;;1.42;;
74674;SDS011;63200;48.810;12.352;2023-11-19T04:24:39;1.52;;;1.52;;
74674;SDS011;63200;48.810;12.352;2023-11-19T04:27:05;1.60;;;1.60;;
74674;SDS011;63200;48.810;12.352;2023-11-19T04:29:31;2.20;;;1.65;;
74674;SDS011;63200;48.810;12.352;2023-11-19T04:31:57;2.00;;;2.00;;
74674;SDS011;63200;48.810;12.352;2023-11-19T04:34:22;2.20;;;2.10;;
74674;SDS011;63200;48.810;12.352;2023-11-19T04:36:47;2.47;;;2.28;;
74674;SDS011;63200;48.810;12.352;2023-11-19T04:39:13;1.80;;;1.80;;
74674;SDS011;63200;48.810;12.352;2023-11-19T04:41:46;2.00;;;1.80;;
74674;SDS011;63200;48.810;12.352;2023-11-19T04:44:15;2.00;;;2.00;;
74674;SDS011;63200;48.810;12.352;2023-11-19T04:46:41;2.00;;;1.90;;
74674;SDS011;63200;48.810;12.352;2023-11-19T04:49:10;1.85;;;1.75;;
74674;SDS011;63200;48.810;12.352;2023-11-19T04:51:43;1.80;;;1.80;;
74674;SDS011;63200;48.810;12.352;2023-11-19T04:54:12;1.88;;;1.70;;
74674;SDS011;63200;48.810;12.352;2023-11-19T04:56:38;1.55;;;1.55;;
74674;SDS011;63200;48.810;12.352;2023-11-19T04:59:04;1.40;;;1.40;;
74674;SDS011;63200;48.810;12.352;2023-11-19T05:01:30;1.70;;;1.70;;
74674;SDS011;63200;48.810;12.352;2023-11-19T05:03:56;1.60;;;1.60;;
74674;SDS011;63200;48.810;12.352;2023-11-19T05:06:25;1.50;;;1.50;;
74674;SDS011;63200;48.810;12.352;2023-11-19T05:08:55;1.58;;;1.58;;
74674;SDS011;63200;48.810;12.352;2023-11-19T05:11:21;1.73;;;1.73;;
74674;SDS011;63200;48.810;12.352;2023-11-19T05:13:46;2.15;;;2.00;;
74674;SDS011;63200;48.810;12.352;2023-11-19T05:16:12;2.00;;;1.90;;
74674;SDS011;63200;48.810;12.352;2023-11-19T05:18:40;1.70;;;1.70;;
74674;SDS011;63200;48.810;12.352;2023-11-19T05:21:06;2.17;;;2.08;;
74674;SDS011;63200;48.810;12.352;2023-11-19T05:23:32;2.20;;;2.10;;
74674;SDS011;63200;48.810;12.352;2023-11-19T05:25:58;1.63;;;1.63;;
74674;SDS011;63200;48.810;12.352;2023-11-19T05:28:25;1.52;;;1.52;;
74674;SDS011;63200;48.810;12.352;2023-11-19T05:30:51;1.42;;;1.42;;
74674;SDS011;63200;48.810;12.352;2023-11-19T05:33:16;4.72;;;3.50;;
74674;SDS011;63200;48.810;12.352;2023-11-19T05:35:41;7.75;;;4.35;;
74674;SDS011;63200;48.810;12.352;2023-11-19T05:38:07;2.55;;;2.35;;
74674;SDS011;63200;48.810;12.352;2023-11-19T05:40:32;2.10;;;1.88;;
74674;SDS011;63200;48.810;12.352;2023-11-19T05:42:57;1.63;;;1.52;;
74674;SDS011;63200;48.810;12.352;2023-11-19T05:45:23;1.65;;;1.60;;
74674;SDS011;63200;48.810;12.352;2023-11-19T05:47:48;1.77;;;1.77;;
74674;SDS011;63200;48.810;12.352;2023-11-19T05:50:13;1.42;;;1.42;;
74674;SDS011;63200;48.810;12.352;2023-11-19T05:52:39;2.08;;;2.08;;
74674;SDS011;63200;48.810;12.352;2023-11-19T05:55:06;1.80;;;1.70;;
74674;SDS011;63200;48.810;12.352;2023-11-19T05:57:35;1.65;;;1.55;;
74674;SDS011;63200;48.810;12.352;2023-11-19T06:00:01;1.63;;;1.63;;
74674;SDS011;63200;48.810;12.352;2023-11-19T06:02:28;2.30;;;1.85;;
74674;SDS011;63200;48.810;12.352;2023-11-19T06:04:53;1.83;;;1.80;;
74674;SDS011;63200;48.810;12.352;2023-11-19T06:07:19;1.90;;;1.80;;
74674;SDS011;63200;48.810;12.352;2023-11-19T06:09:45;1.67;;;1.67;;
74674;SDS011;63200;48.810;12.352;2023-11-19T06:12:10;2.20;;;2.10;;
74674;SDS011;63200;48.810;12.352;2023-11-19T06:14:35;1.83;;;1.73;;
74674;SDS011;63200;48.810;12.352;2023-11-19T06:17:01;2.50;;;2.40;;
74674;SDS011;63200;48.810;12.352;2023-11-19T06:19:26;2.22;;;2.13;;
74674;SDS011;63200;48.810;12.352;2023-11-19T06:21:51;2.25;;;2.15;;
74674;SDS011;63200;48.810;12.352;2023-11-19T06:24:17;2.28;;;2.17;;
74674;SDS011;63200;48.810;12.352;2023-11-19T06:26:43;2.30;;;2.20;;
74674;SDS011;63200;48.810;12.352;2023-11-19T06:29:08;2.38;;;2.28;;
74674;SDS011;63200;48.810;12.352;2023-11-19T06:31:33;2.38;;;2.28;;
74674;SDS011;63200;48.810;12.352;2023-11-19T06:33:59;2.40;;;2.30;;
74674;SDS011;63200;48.810;12.352;2023-11-19T06:36:24;2.80;;;2.70;;
74674;SDS011;63200;48.810;12.352;2023-11-19T06:38:49;3.47;;;3.13;;
74674;SDS011;63200;48.810;12.352;2023-11-19T06:41:15;3.33;;;3.13;;
74674;SDS011;63200;48.810;12.352;2023-11-19T06:43:40;3.67;;;3.47;;
74674;SDS011;63200;48.810;12.352;2023-11-19T06:46:05;3.85;;;3.55;;
74674;SDS011;63200;48.810;12.352;2023-11-19T06:48:39;4.05;;;3.70;;
74674;SDS011;63200;48.810;12.352;2023-11-19T06:51:04;3.40;;;3.20;;
74674;SDS011;63200;48.810;12.352;2023-11-19T06:53:30;3.33;;;3.13;;
74674;SDS011;63200;48.810;12.352;2023-11-19T06:55:55;4.00;;;3.70;;
74674;SDS011;63200;48.810;12.352;2023-11-19T06:58:21;3.38;;;3.17;;
74674;SDS011;63200;48.810;12.352;2023-11-19T07:00:47;3.78;;;3.47;;
74674;SDS011;63200;48.810;12.352;2023-11-19T07:03:14;4.78;;;3.30;;
74674;SDS011;63200;48.810;12.352;2023-11-19T07:05:40;5.10;;;4.35;;
74674;SDS011;63200;48.810;12.352;2023-11-19T07:08:06;5.65;;;3.80;;
74674;SDS011;63200;48.810;12.352;2023-11-19T07:10:32;5.93;;;3.42;;
74674;SDS011;63200;48.810;12.352;2023-11-19T07:12:58;3.65;;;3.35;;
74674;SDS011;63200;48.810;12.352;2023-11-19T07:15:24;5.43;;;3.38;;
74674;SDS011;63200;48.810;12.352;2023-11-19T07:17:49;4.28;;;3.88;;
74674;SDS011;63200;48.810;12.352;2023-11-19T07:20:14;4.28;;;3.45;;
74674;SDS011;63200;48.810;12.352;2023-11-19T07:22:43;3.80;;;3.50;;
74674;SDS011;63200;48.810;12.352;2023-11-19T07:25:10;7.57;;;5.00;;
74674;SDS011;63200;48.810;12.352;2023-11-19T07:27:38;8.75;;;5.30;;
74674;SDS011;63200;48.810;12.352;2023-11-19T07:30:03;9.02;;;5.03;;
74674;SDS011;63200;48.810;12.352;2023-11-19T07:32:32;5.10;;;4.50;;
74674;SDS011;63200;48.810;12.352;2023-11-19T07:34:57;4.75;;;4.30;;
74674;SDS011;63200;48.810;12.352;2023-11-19T07:37:22;7.97;;;4.60;;
74674;SDS011;63200;48.810;12.352;2023-11-19T07:39:48;6.05;;;4.88;;
74674;SDS011;63200;48.810;12.352;2023-11-19T07:42:13;5.80;;;4.85;;
74674;SDS011;63200;48.810;12.352;2023-11-19T07:44:38;6.15;;;4.78;;
74674;SDS011;63200;48.810;12.352;2023-11-19T07:47:04;10.48;;;7.60;;
74674;SDS011;63200;48.810;12.352;2023-11-19T07:49:29;13.05;;;8.52;;
74674;SDS011;63200;48.810;12.352;2023-11-19T07:51:55;14.55;;;9.45;;
74674;SDS011;63200;48.810;12.352;2023-11-19T07:54:21;35.72;;;16.42;;
74674;SDS011;63200;48.810;12.352;2023-11-19T07:56:46;27.23;;;14.35;;
74674;SDS011;63200;48.810;12.352;2023-11-19T07:59:12;26.30;;;12.93;;
74674;SDS011;63200;48.810;12.352;2023-11-19T08:01:37;25.13;;;12.90;;
74674;SDS011;63200;48.810;12.352;2023-11-19T08:04:02;27.23;;;14.70;;
74674;SDS011;63200;48.810;12.352;2023-11-19T08:06:28;27.52;;;14.15;;
74674;SDS011;63200;48.810;12.352;2023-11-19T08:08:53;26.77;;;13.50;;
74674;SDS011;63200;48.810;12.352;2023-11-19T08:11:18;25.95;;;12.55;;
74674;SDS011;63200;48.810;12.352;2023-11-19T08:13:44;21.92;;;12.20;;
74674;SDS011;63200;48.810;12.352;2023-11-19T08:16:10;25.17;;;12.38;;
74674;SDS011;63200;48.810;12.352;2023-11-19T08:18:35;16.00;;;8.82;;
74674;SDS011;63200;48.810;12.352;2023-11-19T08:21:01;14.27;;;8.30;;
74674;SDS011;63200;48.810;12.352;2023-11-19T08:23:29;12.93;;;8.35;;
74674;SDS011;63200;48.810;12.352;2023-11-19T08:25:55;16.63;;;8.30;;
74674;SDS011;63200;48.810;12.352;2023-11-19T08:28:20;12.70;;;7.70;;
74674;SDS011;63200;48.810;12.352;2023-11-19T08:30:46;11.02;;;7.28;;
74674;SDS011;63200;48.810;12.352;2023-11-19T08:33:11;9.23;;;6.35;;
74674;SDS011;63200;48.810;12.352;2023-11-19T08:35:37;8.38;;;5.68;;
74674;SDS011;63200;48.810;12.352;2023-11-19T08:38:02;8.98;;;6.22;;
74674;SDS011;63200;48.810;12.352;2023-11-19T08:40:27;11.07;;;7.68;;
74674;SDS011;63200;48.810;12.352;2023-11-19T08:49:38;13.32;;;9.23;;
74674;SDS011;63200;48.810;12.352;2023-11-19T08:52:04;11.15;;;7.38;;
74674;SDS011;63200;48.810;12.352;2023-11-19T08:54:32;11.82;;;7.82;;
74674;SDS011;63200;48.810;12.352;2023-11-19T08:57:13;11.85;;;7.68;;
74674;SDS011;63200;48.810;12.352;2023-11-19T09:02:59;10.45;;;7.70;;
74674;SDS011;63200;48.810;12.352;2023-11-19T09:05:25;19.55;;;11.68;;
74674;SDS011;63200;48.810;12.352;2023-11-19T09:20:52;8.65;;;6.78;;
74674;SDS011;63200;48.810;12.352;2023-11-19T09:23:17;15.68;;;7.32;;
74674;SDS011;63200;48.810;12.352;2023-11-19T09:25:42;21.48;;;7.78;;
74674;SDS011;63200;48.810;12.352;2023-11-19T09:28:08;14.60;;;7.10;;
74674;SDS011;63200;48.810;12.352;2023-11-19T09:30:33;8.30;;;6.38;;
74674;SDS011;63200;48.810;12.352;2023-11-19T09:32:59;8.23;;;6.28;;
74674;SDS011;63200;48.810;12.352;2023-11-19T09:35:24;11.68;;;7.50;;
74674;SDS011;63200;48.810;12.352;2023-11-19T09:37:50;11.77;;;7.63;;
74674;SDS011;63200;48.810;12.352;2023-11-19T09:43:36;10.77;;;7.28;;
74674;SDS011;63200;48.810;12.352;2023-11-19T09:46:04;16.67;;;9.80;;
74674;SDS011;63200;48.810;12.352;2023-11-19T09:48:32;10.40;;;7.50;;
74674;SDS011;63200;48.810;12.352;2023-11-19T09:51:00;14.02;;;7.82;;
74674;SDS011;63200;48.810;12.352;2023-11-19T09:53:26;11.75;;;7.88;;
74674;SDS011;63200;48.810;12.352;2023-11-19T09:55:51;8.05;;;6.15;;
74674;SDS011;63200;48.810;12.352;2023-11-19T10:01:39;7.68;;;5.95;;
74674;SDS011;63200;48.810;12.352;2023-11-19T10:04:05;6.07;;;5.40;;
74674;SDS011;63200;48.810;12.352;2023-11-19T10:06:32;8.45;;;6.00;;
74674;SDS011;63200;48.810;12.352;2023-11-19T10:08:57;10.70;;;6.57;;
74674;SDS011;63200;48.810;12.352;2023-11-19T10:11:24;6.93;;;5.10;;
74674;SDS011;63200;48.810;12.352;2023-11-19T10:13:49;5.25;;;4.75;;
74674;SDS011;63200;48.810;12.352;2023-11-19T10:16:17;7.72;;;5.75;;
74674;SDS011;63200;48.810;12.352;2023-11-19T10:18:46;6.93;;;5.45;;
74674;SDS011;63200;48.810;12.352;2023-11-19T10:21:12;5.55;;;5.00;;
74674;SDS011;63200;48.810;12.352;2023-11-19T10:23:48;6.53;;;5.32;;
74674;SDS011;63200;48.810;12.352;2023-11-19T10:26:15;5.90;;;5.40;;
74674;SDS011;63200;48.810;12.352;2023-11-19T10:28:40;9.73;;;5.55;;
74674;SDS011;63200;48.810;12.352;2023-11-19T10:31:09;7.13;;;5.97;;
74674;SDS011;63200;48.810;12.352;2023-11-19T10:33:34;5.80;;;5.30;;
74674;SDS011;63200;48.810;12.352;2023-11-19T10:35:59;8.60;;;5.47;;
74674;SDS011;63200;48.810;12.352;2023-11-19T10:38:25;11.38;;;9.25;;
74674;SDS011;63200;48.810;12.352;2023-11-19T10:40:51;9.50;;;7.05;;
74674;SDS011;63200;48.810;12.352;2023-11-19T10:43:17;10.95;;;7.72;;
74674;SDS011;63200;48.810;12.352;2023-11-19T10:45:43;15.35;;;10.07;;
74674;SDS011;63200;48.810;12.352;2023-11-19T10:48:09;19.08;;;12.13;;
74674;SDS011;63200;48.810;12.352;2023-11-19T10:50:35;20.55;;;12.90;;
74674;SDS011;63200;48.810;12.352;2023-11-19T10:53:02;25.60;;;13.95;;
74674;SDS011;63200;48.810;12.352;2023-11-19T10:55:29;20.83;;;11.90;;
74674;SDS011;63200;48.810;12.352;2023-11-19T10:58:00;12.63;;;9.60;;
74674;SDS011;63200;48.810;12.352;2023-11-19T11:00:28;14.50;;;9.50;;
74674;SDS011;63200;48.810;12.352;2023-11-19T11:03:01;11.85;;;7.35;;
74674;SDS011;63200;48.810;12.352;2023-11-19T11:05:29;12.13;;;7.47;;
74674;SDS011;63200;48.810;12.352;2023-11-19T11:07:58;6.25;;;5.03;;
74674;SDS011;63200;48.810;12.352;2023-11-19T11:10:25;6.20;;;5.60;;
74674;SDS011;63200;48.810;12.352;2023-11-19T11:12:52;7.57;;;6.35;;
74674;SDS011;63200;48.810;12.352;2023-11-19T11:15:24;9.25;;;6.55;;
74674;SDS011;63200;48.810;12.352;2023-11-19T11:17:53;8.15;;;6.30;;
74674;SDS011;63200;48.810;12.352;2023-11-19T11:20:29;6.25;;;5.43;;
74674;SDS011;63200;48.810;12.352;2023-11-19T11:35:03;14.32;;;8.75;;
74674;SDS011;63200;48.810;12.352;2023-11-19T11:37:46;11.10;;;7.75;;
74674;SDS011;63200;48.810;12.352;2023-11-19T11:40:14;11.65;;;8.43;;
74674;SDS011;63200;48.810;12.352;2023-11-19T11:42:41;9.52;;;7.47;;
74674;SDS011;63200;48.810;12.352;2023-11-19T11:45:10;7.60;;;6.30;;
74674;SDS011;63200;48.810;12.352;2023-11-19T11:50:18;9.23;;;7.03;;
74674;SDS011;63200;48.810;12.352;2023-11-19T11:57:53;10.25;;;7.80;;
74674;SDS011;63200;48.810;12.352;2023-11-19T12:00:26;9.48;;;7.50;;
74674;SDS011;63200;48.810;12.352;2023-11-19T12:02:59;9.98;;;8.20;;
74674;SDS011;63200;48.810;12.352;2023-11-19T12:05:25;11.43;;;8.27;;
74674;SDS011;63200;48.810;12.352;2023-11-19T12:07:54;9.57;;;8.55;;
74674;SDS011;63200;48.810;12.352;2023-11-19T12:10:20;11.13;;;8.75;;
74674;SDS011;63200;48.810;12.352;2023-11-19T12:12:47;14.20;;;9.35;;
74674;SDS011;63200;48.810;12.352;2023-11-19T12:15:12;13.38;;;9.60;;
74674;SDS011;63200;48.810;12.352;2023-11-19T12:20:14;31.58;;;16.63;;
74674;SDS011;63200;48.810;12.352;2023-11-19T12:22:41;28.55;;;16.23;;
74674;SDS011;63200;48.810;12.352;2023-11-19T12:25:09;28.40;;;16.23;;
74674;SDS011;63200;48.810;12.352;2023-11-19T12:27:36;26.30;;;16.13;;
74674;SDS011;63200;48.810;12.352;2023-11-19T12:30:02;43.25;;;19.30;;
74674;SDS011;63200;48.810;12.352;2023-11-19T12:32:39;48.72;;;22.20;;
74674;SDS011;63200;48.810;12.352;2023-11-19T12:35:08;55.03;;;23.58;;
74674;SDS011;63200;48.810;12.352;2023-11-19T12:37:46;88.65;;;41.40;;
74674;SDS011;63200;48.810;12.352;2023-11-19T12:40:13;62.75;;;30.60;;
74674;SDS011;63200;48.810;12.352;2023-11-19T12:42:46;65.25;;;31.63;;
74674;SDS011;63200;48.810;12.352;2023-11-19T12:45:15;229.88;;;94.97;;
74674;SDS011;63200;48.810;12.352;2023-11-19T12:47:41;163.70;;;71.90;;
74674;SDS011;63200;48.810;12.352;2023-11-19T12:50:08;81.93;;;39.03;;
74674;SDS011;63200;48.810;12.352;2023-11-19T12:52:35;27.10;;;13.77;;
74674;SDS011;63200;48.810;12.352;2023-11-19T12:55:01;10.13;;;6.57;;
74674;SDS011;63200;48.810;12.352;2023-11-19T12:57:37;1.52;;;1.40;;
74674;SDS011;63200;48.810;12.352;2023-11-19T13:00:04;1.17;;;1.08;;
74674;SDS011;63200;48.810;12.352;2023-11-19T13:02:44;1.05;;;1.00;;
74674;SDS011;63200;48.810;12.352;2023-11-19T13:05:23;0.93;;;0.93;;
74674;SDS011;63200;48.810;12.352;2023-11-19T13:07:49;0.70;;;0.70;;
74674;SDS011;63200;48.810;12.352;2023-11-19T13:10:15;0.70;;;0.70;;
74674;SDS011;63200;48.810;12.352;2023-11-19T13:12:40;1.58;;;0.88;;
74674;SDS011;63200;48.810;12.352;2023-11-19T13:15:06;0.93;;;0.80;;
74674;SDS011;63200;48.810;12.352;2023-11-19T13:17:31;1.23;;;0.70;;
74674;SDS011;63200;48.810;12.352;2023-11-19T13:19:57;0.70;;;0.70;;
74674;SDS011;63200;48.810;12.352;2023-11-19T13:22:22;0.80;;;0.80;;
74674;SDS011;63200;48.810;12.352;2023-11-19T13:24:48;1.13;;;0.80;;
74674;SDS011;63200;48.810;12.352;2023-11-19T13:27:13;1.00;;;0.60;;
74674;SDS011;63200;48.810;12.352;2023-11-19T13:29:39;2.85;;;0.63;;
74674;SDS011;63200;48.810;12.352;2023-11-19T13:32:04;0.85;;;0.85;;
74674;SDS011;63200;48.810;12.352;2023-11-19T13:34:30;0.40;;;0.40;;
74674;SDS011;63200;48.810;12.352;2023-11-19T13:36:56;2.17;;;0.90;;
74674;SDS011;63200;48.810;12.352;2023-11-19T13:39:21;0.85;;;0.70;;
74674;SDS011;63200;48.810;12.352;2023-11-19T13:41:48;0.70;;;0.70;;
74674;SDS011;63200;48.810;12.352;2023-11-19T13:44:15;0.70;;;0.70;;
74674;SDS011;63200;48.810;12.352;2023-11-19T13:46:41;0.70;;;0.70;;
74674;SDS011;63200;48.810;12.352;2023-11-19T13:49:06;0.70;;;0.70;;
74674;SDS011;63200;48.810;12.352;2023-11-19T13:51:32;0.80;;;0.80;;
74674;SDS011;63200;48.810;12.352;2023-11-19T13:53:57;0.68;;;0.65;;
74674;SDS011;63200;48.810;12.352;2023-11-19T13:56:23;3.03;;;0.70;;
74674;SDS011;63200;48.810;12.352;2023-11-19T13:58:48;0.65;;;0.65;;
74674;SDS011;63200;48.810;12.352;2023-11-19T14:01:14;1.15;;;0.80;;
74674;SDS011;63200;48.810;12.352;2023-11-19T14:03:39;1.95;;;0.60;;
74674;SDS011;63200;48.810;12.352;2023-11-19T14:06:05;1.33;;;0.80;;
74674;SDS011;63200;48.810;12.352;2023-11-19T14:08:33;0.93;;;0.60;;
74674;SDS011;63200;48.810;12.352;2023-11-19T14:10:58;0.63;;;0.63;;
74674;SDS011;63200;48.810;12.352;2023-11-19T14:13:24;0.70;;;0.70;;
74674;SDS011;63200;48.810;12.352;2023-11-19T14:15:49;0.70;;;0.70;;
74674;SDS011;63200;48.810;12.352;2023-11-19T14:18:15;0.70;;;0.70;;
74674;SDS011;63200;48.810;12.352;2023-11-19T14:20:40;2.22;;;0.90;;
74674;SDS011;63200;48.810;12.352;2023-11-19T14:23:06;1.08;;;0.93;;
74674;SDS011;63200;48.810;12.352;2023-11-19T14:25:31;0.55;;;0.55;;
74674;SDS011;63200;48.810;12.352;2023-11-19T14:27:56;0.75;;;0.70;;
74674;SDS011;63200;48.810;12.352;2023-11-19T14:30:22;0.73;;;0.73;;
74674;SDS011;63200;48.810;12.352;2023-11-19T14:32:47;2.38;;;0.70;;
74674;SDS011;63200;48.810;12.352;2023-11-19T14:35:13;0.90;;;0.90;;
74674;SDS011;63200;48.810;12.352;2023-11-19T14:37:39;0.80;;;0.80;;
74674;SDS011;63200;48.810;12.352;2023-11-19T14:40:04;0.80;;;0.80;;
74674;SDS011;63200;48.810;12.352;2023-11-19T14:42:32;4.15;;;0.80;;
74674;SDS011;63200;48.810;12.352;2023-11-19T14:44:57;1.05;;;0.52;;
74674;SDS011;63200;48.810;12.352;2023-11-19T14:47:23;0.77;;;0.70;;
74674;SDS011;63200;48.810;12.352;2023-11-19T14:49:49;0.68;;;0.68;;
74674;SDS011;63200;48.810;12.352;2023-11-19T14:52:14;0.80;;;0.80;;
74674;SDS011;63200;48.810;12.352;2023-11-19T14:54:40;0.70;;;0.70;;
74674;SDS011;63200;48.810;12.352;2023-11-19T14:57:05;0.75;;;0.68;;
74674;SDS011;63200;48.810;12.352;2023-11-19T14:59:34;0.80;;;0.80;;
74674;SDS011;63200;48.810;12.352;2023-11-19T15:02:00;0.70;;;0.70;;
74674;SDS011;63200;48.810;12.352;2023-11-19T15:04:28;0.80;;;0.80;;
74674;SDS011;63200;48.810;12.352;2023-11-19T15:06:56;0.70;;;0.70;;
74674;SDS011;63200;48.810;12.352;2023-11-19T15:09:21;1.30;;;0.70;;
74674;SDS011;63200;48.810;12.352;2023-11-19T15:11:47;1.25;;;0.70;;
74674;SDS011;63200;48.810;12.352;2023-11-19T15:14:15;0.75;;;0.75;;
74674;SDS011;63200;48.810;12.352;2023-11-19T15:16:43;2.40;;;0.82;;
74674;SDS011;63200;48.810;12.352;2023-11-19T15:19:10;0.85;;;0.68;;